sensor_id;sensor_type;location;lat;lon;timestamp;P1;durP1;ratioP1;P2;durP2;ratioP2
43487;SDS011;29078;41.932;25.554;2023-06-14T00:01:16;7.18;;;4.55;;
43487;SDS011;29078;41.932;25.554;2023-06-14T00:03:42;6.55;;;4.65;;
43487;SDS011;29078;41.932;25.554;2023-06-14T00:06:07;5.80;;;4.30;;
43487;SDS011;29078;41.932;25.554;2023-06-14T00:08:33;8.60;;;4.63;;
43487;SDS011;29078;41.932;25.554;2023-06-14T00:10:58;7.00;;;4.70;;
43487;SDS011;29078;41.932;25.554;2023-06-14T00:13:24;4.93;;;4.43;;
43487;SDS011;29078;41.932;25.554;2023-06-14T00:15:49;4.72;;;4.00;;
43487;SDS011;29078;41.932;25.554;2023-06-14T00:18:18;5.63;;;4.50;;
43487;SDS011;29078;41.932;25.554;2023-06-14T00:20:43;7.35;;;4.40;;
43487;SDS011;29078;41.932;25.554;2023-06-14T00:23:09;6.00;;;4.70;;
43487;SDS011;29078;41.932;25.554;2023-06-14T00:25:34;7.13;;;4.40;;
43487;SDS011;29078;41.932;25.554;2023-06-14T00:28:00;7.63;;;4.82;;
43487;SDS011;29078;41.932;25.554;2023-06-14T00:30:45;5.22;;;4.50;;
43487;SDS011;29078;41.932;25.554;2023-06-14T00:33:11;6.03;;;4.25;;
43487;SDS011;29078;41.932;25.554;2023-06-14T00:35:37;5.60;;;4.90;;
43487;SDS011;29078;41.932;25.554;2023-06-14T00:38:02;5.93;;;5.22;;
43487;SDS011;29078;41.932;25.554;2023-06-14T00:40:27;5.45;;;4.80;;
43487;SDS011;29078;41.932;25.554;2023-06-14T00:42:53;7.32;;;4.72;;
43487;SDS011;29078;41.932;25.554;2023-06-14T00:45:18;5.47;;;4.20;;
43487;SDS011;29078;41.932;25.554;2023-06-14T00:47:44;5.13;;;4.28;;
43487;SDS011;29078;41.932;25.554;2023-06-14T00:50:11;7.05;;;4.80;;
43487;SDS011;29078;41.932;25.554;2023-06-14T00:52:36;5.13;;;4.57;;
43487;SDS011;29078;41.932;25.554;2023-06-14T00:55:03;8.32;;;5.32;;
43487;SDS011;29078;41.932;25.554;2023-06-14T00:57:28;6.13;;;5.15;;
43487;SDS011;29078;41.932;25.554;2023-06-14T00:59:54;7.03;;;4.93;;
43487;SDS011;29078;41.932;25.554;2023-06-14T01:02:20;7.00;;;5.80;;
43487;SDS011;29078;41.932;25.554;2023-06-14T01:04:47;7.00;;;5.53;;
43487;SDS011;29078;41.932;25.554;2023-06-14T01:15:36;5.93;;;5.28;;
43487;SDS011;29078;41.932;25.554;2023-06-14T01:18:03;6.22;;;4.85;;
43487;SDS011;29078;41.932;25.554;2023-06-14T01:20:31;5.78;;;5.15;;
43487;SDS011;29078;41.932;25.554;2023-06-14T01:22:57;8.85;;;5.50;;
43487;SDS011;29078;41.932;25.554;2023-06-14T01:25:24;9.45;;;5.47;;
43487;SDS011;29078;41.932;25.554;2023-06-14T01:27:51;5.93;;;5.30;;
43487;SDS011;29078;41.932;25.554;2023-06-14T01:30:20;9.35;;;5.43;;
43487;SDS011;29078;41.932;25.554;2023-06-14T01:32:47;10.00;;;5.60;;
43487;SDS011;29078;41.932;25.554;2023-06-14T01:35:15;7.47;;;5.43;;
43487;SDS011;29078;41.932;25.554;2023-06-14T01:37:41;6.07;;;5.20;;
43487;SDS011;29078;41.932;25.554;2023-06-14T01:40:09;7.22;;;5.63;;
43487;SDS011;29078;41.932;25.554;2023-06-14T01:42:36;10.30;;;5.43;;
43487;SDS011;29078;41.932;25.554;2023-06-14T01:45:04;9.40;;;5.70;;
43487;SDS011;29078;41.932;25.554;2023-06-14T01:47:33;6.90;;;6.20;;
43487;SDS011;29078;41.932;25.554;2023-06-14T01:50:01;7.35;;;5.50;;
43487;SDS011;29078;41.932;25.554;2023-06-14T01:52:27;7.10;;;5.80;;
43487;SDS011;29078;41.932;25.554;2023-06-14T01:54:53;10.70;;;6.05;;
43487;SDS011;29078;41.932;25.554;2023-06-14T01:57:19;9.95;;;6.15;;
43487;SDS011;29078;41.932;25.554;2023-06-14T01:59:45;5.85;;;5.35;;
43487;SDS011;29078;41.932;25.554;2023-06-14T02:02:13;6.90;;;5.57;;
43487;SDS011;29078;41.932;25.554;2023-06-14T02:04:40;7.50;;;6.20;;
43487;SDS011;29078;41.932;25.554;2023-06-14T02:07:05;10.70;;;6.30;;
43487;SDS011;29078;41.932;25.554;2023-06-14T02:09:31;7.03;;;5.85;;
43487;SDS011;29078;41.932;25.554;2023-06-14T02:11:56;11.07;;;6.15;;
43487;SDS011;29078;41.932;25.554;2023-06-14T02:14:21;8.20;;;5.82;;
43487;SDS011;29078;41.932;25.554;2023-06-14T02:16:48;6.43;;;5.60;;
43487;SDS011;29078;41.932;25.554;2023-06-14T02:19:17;8.98;;;6.13;;
43487;SDS011;29078;41.932;25.554;2023-06-14T02:21:44;6.90;;;6.22;;
43487;SDS011;29078;41.932;25.554;2023-06-14T02:24:10;6.57;;;5.88;;
43487;SDS011;29078;41.932;25.554;2023-06-14T02:26:35;7.80;;;5.75;;
43487;SDS011;29078;41.932;25.554;2023-06-14T02:29:03;9.70;;;6.07;;
43487;SDS011;29078;41.932;25.554;2023-06-14T02:31:30;11.43;;;6.40;;
43487;SDS011;29078;41.932;25.554;2023-06-14T02:33:59;7.78;;;5.68;;
43487;SDS011;29078;41.932;25.554;2023-06-14T02:36:24;9.45;;;6.25;;
43487;SDS011;29078;41.932;25.554;2023-06-14T02:38:49;9.43;;;6.22;;
43487;SDS011;29078;41.932;25.554;2023-06-14T02:41:15;10.88;;;5.85;;
43487;SDS011;29078;41.932;25.554;2023-06-14T02:43:40;9.60;;;5.90;;
43487;SDS011;29078;41.932;25.554;2023-06-14T02:46:06;6.88;;;6.15;;
43487;SDS011;29078;41.932;25.554;2023-06-14T02:48:32;9.98;;;6.22;;
43487;SDS011;29078;41.932;25.554;2023-06-14T02:50:57;9.60;;;7.35;;
43487;SDS011;29078;41.932;25.554;2023-06-14T02:53:22;14.73;;;7.40;;
43487;SDS011;29078;41.932;25.554;2023-06-14T02:55:48;12.82;;;7.68;;
43487;SDS011;29078;41.932;25.554;2023-06-14T02:58:13;8.55;;;7.13;;
43487;SDS011;29078;41.932;25.554;2023-06-14T03:00:39;16.05;;;7.50;;
43487;SDS011;29078;41.932;25.554;2023-06-14T03:03:06;9.70;;;7.57;;
43487;SDS011;29078;41.932;25.554;2023-06-14T03:05:40;9.40;;;7.10;;
43487;SDS011;29078;41.932;25.554;2023-06-14T03:08:11;8.70;;;7.60;;
43487;SDS011;29078;41.932;25.554;2023-06-14T03:10:42;8.00;;;7.20;;
43487;SDS011;29078;41.932;25.554;2023-06-14T03:13:11;8.07;;;6.85;;
43487;SDS011;29078;41.932;25.554;2023-06-14T03:15:37;8.95;;;7.03;;
43487;SDS011;29078;41.932;25.554;2023-06-14T03:18:03;10.00;;;8.35;;
43487;SDS011;29078;41.932;25.554;2023-06-14T03:20:29;9.68;;;7.75;;
43487;SDS011;29078;41.932;25.554;2023-06-14T03:22:58;9.25;;;7.30;;
43487;SDS011;29078;41.932;25.554;2023-06-14T03:25:24;9.73;;;8.18;;
43487;SDS011;29078;41.932;25.554;2023-06-14T03:27:50;8.88;;;7.18;;
43487;SDS011;29078;41.932;25.554;2023-06-14T03:30:16;9.70;;;7.18;;
43487;SDS011;29078;41.932;25.554;2023-06-14T03:32:41;8.57;;;7.38;;
43487;SDS011;29078;41.932;25.554;2023-06-14T03:35:07;8.73;;;6.70;;
43487;SDS011;29078;41.932;25.554;2023-06-14T03:37:32;9.60;;;7.55;;
43487;SDS011;29078;41.932;25.554;2023-06-14T03:39:58;9.63;;;7.15;;
43487;SDS011;29078;41.932;25.554;2023-06-14T03:42:23;9.25;;;7.30;;
43487;SDS011;29078;41.932;25.554;2023-06-14T03:44:49;10.77;;;7.57;;
43487;SDS011;29078;41.932;25.554;2023-06-14T03:47:14;8.02;;;7.20;;
43487;SDS011;29078;41.932;25.554;2023-06-14T03:49:40;8.73;;;6.95;;
43487;SDS011;29078;41.932;25.554;2023-06-14T03:52:05;10.43;;;8.25;;
43487;SDS011;29078;41.932;25.554;2023-06-14T03:54:31;12.90;;;7.05;;
43487;SDS011;29078;41.932;25.554;2023-06-14T03:56:57;17.50;;;8.02;;
43487;SDS011;29078;41.932;25.554;2023-06-14T03:59:23;9.35;;;7.88;;
43487;SDS011;29078;41.932;25.554;2023-06-14T04:01:49;13.57;;;8.75;;
43487;SDS011;29078;41.932;25.554;2023-06-14T04:04:14;9.80;;;8.60;;
43487;SDS011;29078;41.932;25.554;2023-06-14T04:06:41;10.18;;;8.98;;
43487;SDS011;29078;41.932;25.554;2023-06-14T04:09:07;13.00;;;7.63;;
43487;SDS011;29078;41.932;25.554;2023-06-14T04:11:33;10.15;;;8.95;;
43487;SDS011;29078;41.932;25.554;2023-06-14T04:13:59;13.93;;;8.48;;
43487;SDS011;29078;41.932;25.554;2023-06-14T04:16:24;12.85;;;8.90;;
43487;SDS011;29078;41.932;25.554;2023-06-14T04:18:50;9.40;;;7.93;;
43487;SDS011;29078;41.932;25.554;2023-06-14T04:21:17;12.25;;;8.35;;
43487;SDS011;29078;41.932;25.554;2023-06-14T04:23:43;9.98;;;8.50;;
43487;SDS011;29078;41.932;25.554;2023-06-14T04:26:09;13.68;;;9.30;;
43487;SDS011;29078;41.932;25.554;2023-06-14T04:28:35;11.75;;;8.85;;
43487;SDS011;29078;41.932;25.554;2023-06-14T04:31:05;11.10;;;9.40;;
43487;SDS011;29078;41.932;25.554;2023-06-14T04:33:34;14.73;;;10.00;;
43487;SDS011;29078;41.932;25.554;2023-06-14T04:36:08;12.20;;;9.52;;
43487;SDS011;29078;41.932;25.554;2023-06-14T04:38:36;10.55;;;9.45;;
43487;SDS011;29078;41.932;25.554;2023-06-14T04:41:02;11.77;;;10.27;;
43487;SDS011;29078;41.932;25.554;2023-06-14T04:43:27;12.27;;;10.13;;
43487;SDS011;29078;41.932;25.554;2023-06-14T04:45:52;14.10;;;12.02;;
43487;SDS011;29078;41.932;25.554;2023-06-14T04:48:20;13.45;;;11.27;;
43487;SDS011;29078;41.932;25.554;2023-06-14T04:50:46;14.95;;;11.90;;
43487;SDS011;29078;41.932;25.554;2023-06-14T04:53:11;16.35;;;12.32;;
43487;SDS011;29078;41.932;25.554;2023-06-14T04:55:37;17.13;;;10.80;;
43487;SDS011;29078;41.932;25.554;2023-06-14T04:58:03;14.15;;;11.23;;
43487;SDS011;29078;41.932;25.554;2023-06-14T05:00:29;14.55;;;11.40;;
43487;SDS011;29078;41.932;25.554;2023-06-14T05:02:55;11.27;;;9.98;;
43487;SDS011;29078;41.932;25.554;2023-06-14T05:05:22;11.27;;;10.02;;
43487;SDS011;29078;41.932;25.554;2023-06-14T05:10:31;12.80;;;11.10;;
43487;SDS011;29078;41.932;25.554;2023-06-14T05:12:59;12.55;;;10.00;;
43487;SDS011;29078;41.932;25.554;2023-06-14T05:15:25;12.60;;;9.73;;
43487;SDS011;29078;41.932;25.554;2023-06-14T05:17:51;13.43;;;9.40;;
43487;SDS011;29078;41.932;25.554;2023-06-14T05:20:20;10.98;;;8.32;;
43487;SDS011;29078;41.932;25.554;2023-06-14T05:22:48;12.65;;;8.20;;
43487;SDS011;29078;41.932;25.554;2023-06-14T05:25:15;10.80;;;8.45;;
43487;SDS011;29078;41.932;25.554;2023-06-14T05:27:40;9.73;;;7.10;;
43487;SDS011;29078;41.932;25.554;2023-06-14T05:30:07;8.90;;;8.00;;
43487;SDS011;29078;41.932;25.554;2023-06-14T05:32:33;9.85;;;8.00;;
43487;SDS011;29078;41.932;25.554;2023-06-14T05:34:59;14.30;;;8.52;;
43487;SDS011;29078;41.932;25.554;2023-06-14T05:37:24;9.65;;;8.60;;
43487;SDS011;29078;41.932;25.554;2023-06-14T05:39:50;13.23;;;8.60;;
43487;SDS011;29078;41.932;25.554;2023-06-14T05:42:15;8.45;;;7.57;;
43487;SDS011;29078;41.932;25.554;2023-06-14T05:44:40;10.05;;;8.20;;
43487;SDS011;29078;41.932;25.554;2023-06-14T05:47:06;10.23;;;9.18;;
43487;SDS011;29078;41.932;25.554;2023-06-14T05:49:31;9.88;;;7.93;;
43487;SDS011;29078;41.932;25.554;2023-06-14T05:51:57;11.50;;;8.00;;
43487;SDS011;29078;41.932;25.554;2023-06-14T05:54:22;11.75;;;8.80;;
43487;SDS011;29078;41.932;25.554;2023-06-14T05:56:47;11.57;;;8.73;;
43487;SDS011;29078;41.932;25.554;2023-06-14T05:59:13;9.45;;;8.45;;
43487;SDS011;29078;41.932;25.554;2023-06-14T06:01:38;11.32;;;8.10;;
43487;SDS011;29078;41.932;25.554;2023-06-14T06:04:05;11.90;;;9.27;;
43487;SDS011;29078;41.932;25.554;2023-06-14T06:06:31;9.73;;;8.65;;
43487;SDS011;29078;41.932;25.554;2023-06-14T06:08:57;11.95;;;9.23;;
43487;SDS011;29078;41.932;25.554;2023-06-14T06:11:23;13.68;;;9.20;;
43487;SDS011;29078;41.932;25.554;2023-06-14T06:13:48;16.58;;;11.77;;
43487;SDS011;29078;41.932;25.554;2023-06-14T06:16:14;15.85;;;9.48;;
43487;SDS011;29078;41.932;25.554;2023-06-14T06:18:40;16.10;;;10.32;;
43487;SDS011;29078;41.932;25.554;2023-06-14T06:21:05;16.35;;;11.63;;
43487;SDS011;29078;41.932;25.554;2023-06-14T06:23:31;14.32;;;10.27;;
43487;SDS011;29078;41.932;25.554;2023-06-14T06:25:56;12.30;;;10.65;;
43487;SDS011;29078;41.932;25.554;2023-06-14T06:28:22;11.15;;;9.55;;
43487;SDS011;29078;41.932;25.554;2023-06-14T06:30:47;22.35;;;18.58;;
43487;SDS011;29078;41.932;25.554;2023-06-14T06:33:12;21.40;;;19.13;;
43487;SDS011;29078;41.932;25.554;2023-06-14T06:35:39;11.57;;;10.27;;
43487;SDS011;29078;41.932;25.554;2023-06-14T06:38:04;11.77;;;9.68;;
43487;SDS011;29078;41.932;25.554;2023-06-14T06:40:30;12.10;;;10.38;;
43487;SDS011;29078;41.932;25.554;2023-06-14T06:42:55;14.23;;;10.18;;
43487;SDS011;29078;41.932;25.554;2023-06-14T06:45:21;13.73;;;10.20;;
43487;SDS011;29078;41.932;25.554;2023-06-14T06:47:48;18.48;;;12.25;;
43487;SDS011;29078;41.932;25.554;2023-06-14T06:50:13;12.13;;;10.75;;
43487;SDS011;29078;41.932;25.554;2023-06-14T06:52:57;11.18;;;9.82;;
43487;SDS011;29078;41.932;25.554;2023-06-14T06:55:23;11.65;;;8.82;;
43487;SDS011;29078;41.932;25.554;2023-06-14T06:57:48;8.25;;;7.25;;
43487;SDS011;29078;41.932;25.554;2023-06-14T07:00:15;9.70;;;7.43;;
43487;SDS011;29078;41.932;25.554;2023-06-14T07:02:41;8.55;;;7.75;;
43487;SDS011;29078;41.932;25.554;2023-06-14T07:05:06;10.52;;;5.90;;
43487;SDS011;29078;41.932;25.554;2023-06-14T07:07:32;8.60;;;6.18;;
43487;SDS011;29078;41.932;25.554;2023-06-14T07:09:58;9.13;;;6.57;;
43487;SDS011;29078;41.932;25.554;2023-06-14T07:12:23;6.43;;;5.82;;
43487;SDS011;29078;41.932;25.554;2023-06-14T07:14:49;6.10;;;5.28;;
43487;SDS011;29078;41.932;25.554;2023-06-14T07:17:14;8.02;;;5.88;;
43487;SDS011;29078;41.932;25.554;2023-06-14T07:19:39;5.78;;;5.25;;
43487;SDS011;29078;41.932;25.554;2023-06-14T07:22:05;8.70;;;6.38;;
43487;SDS011;29078;41.932;25.554;2023-06-14T07:24:30;9.57;;;6.43;;
43487;SDS011;29078;41.932;25.554;2023-06-14T07:26:56;8.18;;;5.90;;
43487;SDS011;29078;41.932;25.554;2023-06-14T07:29:21;6.45;;;5.72;;
43487;SDS011;29078;41.932;25.554;2023-06-14T07:31:47;12.98;;;8.18;;
43487;SDS011;29078;41.932;25.554;2023-06-14T07:34:12;7.85;;;6.60;;
43487;SDS011;29078;41.932;25.554;2023-06-14T07:36:37;7.20;;;5.72;;
43487;SDS011;29078;41.932;25.554;2023-06-14T07:39:03;7.80;;;5.72;;
43487;SDS011;29078;41.932;25.554;2023-06-14T07:41:30;6.60;;;5.90;;
43487;SDS011;29078;41.932;25.554;2023-06-14T07:43:56;6.60;;;5.90;;
43487;SDS011;29078;41.932;25.554;2023-06-14T07:46:21;6.70;;;5.18;;
43487;SDS011;29078;41.932;25.554;2023-06-14T07:48:47;5.50;;;5.10;;
43487;SDS011;29078;41.932;25.554;2023-06-14T07:51:13;6.93;;;5.13;;
43487;SDS011;29078;41.932;25.554;2023-06-14T07:53:38;5.65;;;4.53;;
43487;SDS011;29078;41.932;25.554;2023-06-14T07:56:04;6.43;;;4.07;;
43487;SDS011;29078;41.932;25.554;2023-06-14T07:58:29;5.65;;;4.32;;
43487;SDS011;29078;41.932;25.554;2023-06-14T08:00:55;5.03;;;4.50;;
43487;SDS011;29078;41.932;25.554;2023-06-14T08:03:20;6.78;;;4.72;;
43487;SDS011;29078;41.932;25.554;2023-06-14T08:05:47;5.15;;;4.45;;
43487;SDS011;29078;41.932;25.554;2023-06-14T08:08:13;5.22;;;4.43;;
43487;SDS011;29078;41.932;25.554;2023-06-14T08:10:38;4.97;;;4.57;;
43487;SDS011;29078;41.932;25.554;2023-06-14T08:13:03;6.07;;;4.70;;
43487;SDS011;29078;41.932;25.554;2023-06-14T08:15:29;5.70;;;4.50;;
43487;SDS011;29078;41.932;25.554;2023-06-14T08:17:54;5.70;;;4.80;;
43487;SDS011;29078;41.932;25.554;2023-06-14T08:20:20;6.03;;;4.40;;
43487;SDS011;29078;41.932;25.554;2023-06-14T08:22:45;6.13;;;5.13;;
43487;SDS011;29078;41.932;25.554;2023-06-14T08:25:13;5.75;;;4.47;;
43487;SDS011;29078;41.932;25.554;2023-06-14T08:27:40;5.70;;;4.88;;
43487;SDS011;29078;41.932;25.554;2023-06-14T08:30:06;8.52;;;5.35;;
43487;SDS011;29078;41.932;25.554;2023-06-14T08:32:33;5.70;;;4.63;;
43487;SDS011;29078;41.932;25.554;2023-06-14T08:34:58;8.45;;;4.85;;
43487;SDS011;29078;41.932;25.554;2023-06-14T08:37:23;8.77;;;7.00;;
43487;SDS011;29078;41.932;25.554;2023-06-14T08:39:49;10.73;;;9.63;;
43487;SDS011;29078;41.932;25.554;2023-06-14T08:42:14;6.47;;;5.50;;
43487;SDS011;29078;41.932;25.554;2023-06-14T08:44:40;6.90;;;5.88;;
43487;SDS011;29078;41.932;25.554;2023-06-14T08:47:07;5.68;;;5.00;;
43487;SDS011;29078;41.932;25.554;2023-06-14T08:49:35;7.40;;;5.32;;
43487;SDS011;29078;41.932;25.554;2023-06-14T08:52:02;12.15;;;9.02;;
43487;SDS011;29078;41.932;25.554;2023-06-14T08:54:30;8.20;;;5.80;;
43487;SDS011;29078;41.932;25.554;2023-06-14T08:56:57;5.70;;;4.70;;
43487;SDS011;29078;41.932;25.554;2023-06-14T08:59:24;5.57;;;4.90;;
43487;SDS011;29078;41.932;25.554;2023-06-14T09:01:51;7.55;;;4.30;;
43487;SDS011;29078;41.932;25.554;2023-06-14T09:04:17;6.00;;;4.53;;
43487;SDS011;29078;41.932;25.554;2023-06-14T09:06:44;4.40;;;4.00;;
43487;SDS011;29078;41.932;25.554;2023-06-14T09:09:10;6.40;;;4.40;;
43487;SDS011;29078;41.932;25.554;2023-06-14T09:11:37;5.00;;;4.50;;
43487;SDS011;29078;41.932;25.554;2023-06-14T09:14:02;6.13;;;3.75;;
43487;SDS011;29078;41.932;25.554;2023-06-14T09:16:28;4.10;;;3.70;;
43487;SDS011;29078;41.932;25.554;2023-06-14T09:18:53;5.97;;;4.85;;
43487;SDS011;29078;41.932;25.554;2023-06-14T09:21:19;4.75;;;4.00;;
43487;SDS011;29078;41.932;25.554;2023-06-14T09:23:46;5.25;;;4.22;;
43487;SDS011;29078;41.932;25.554;2023-06-14T09:28:57;6.68;;;5.05;;
43487;SDS011;29078;41.932;25.554;2023-06-14T09:31:23;4.97;;;4.43;;
43487;SDS011;29078;41.932;25.554;2023-06-14T09:33:49;5.68;;;4.68;;
43487;SDS011;29078;41.932;25.554;2023-06-14T09:36:18;6.60;;;4.55;;
43487;SDS011;29078;41.932;25.554;2023-06-14T09:41:19;9.35;;;8.35;;
43487;SDS011;29078;41.932;25.554;2023-06-14T09:43:44;14.48;;;13.10;;
43487;SDS011;29078;41.932;25.554;2023-06-14T09:46:12;22.70;;;20.30;;
43487;SDS011;29078;41.932;25.554;2023-06-14T09:48:38;7.10;;;5.68;;
43487;SDS011;29078;41.932;25.554;2023-06-14T09:51:07;26.90;;;24.15;;
43487;SDS011;29078;41.932;25.554;2023-06-14T09:53:38;8.88;;;7.57;;
43487;SDS011;29078;41.932;25.554;2023-06-14T09:56:07;11.05;;;9.93;;
43487;SDS011;29078;41.932;25.554;2023-06-14T09:58:35;7.32;;;6.35;;
43487;SDS011;29078;41.932;25.554;2023-06-14T10:01:04;7.10;;;6.50;;
43487;SDS011;29078;41.932;25.554;2023-06-14T10:03:33;3.63;;;3.28;;
43487;SDS011;29078;41.932;25.554;2023-06-14T10:06:02;8.63;;;6.85;;
43487;SDS011;29078;41.932;25.554;2023-06-14T10:08:29;8.98;;;7.47;;
43487;SDS011;29078;41.932;25.554;2023-06-14T10:10:58;5.30;;;3.60;;
43487;SDS011;29078;41.932;25.554;2023-06-14T10:13:23;8.13;;;6.07;;
43487;SDS011;29078;41.932;25.554;2023-06-14T10:18:31;4.28;;;3.60;;
43487;SDS011;29078;41.932;25.554;2023-06-14T10:23:47;4.38;;;3.50;;
43487;SDS011;29078;41.932;25.554;2023-06-14T10:26:22;5.40;;;4.85;;
43487;SDS011;29078;41.932;25.554;2023-06-14T10:29:07;4.22;;;3.40;;
43487;SDS011;29078;41.932;25.554;2023-06-14T10:31:44;4.78;;;3.72;;
43487;SDS011;29078;41.932;25.554;2023-06-14T10:34:26;4.00;;;3.35;;
43487;SDS011;29078;41.932;25.554;2023-06-14T10:37:05;4.75;;;3.60;;
43487;SDS011;29078;41.932;25.554;2023-06-14T10:39:38;6.28;;;5.47;;
43487;SDS011;29078;41.932;25.554;2023-06-14T10:42:09;5.03;;;4.32;;
43487;SDS011;29078;41.932;25.554;2023-06-14T10:49:54;6.47;;;4.28;;
43487;SDS011;29078;41.932;25.554;2023-06-14T10:52:32;6.53;;;3.85;;
43487;SDS011;29078;41.932;25.554;2023-06-14T11:00:17;5.82;;;4.75;;
43487;SDS011;29078;41.932;25.554;2023-06-14T11:08:25;6.55;;;4.57;;
43487;SDS011;29078;41.932;25.554;2023-06-14T11:10:58;4.47;;;3.72;;
43487;SDS011;29078;41.932;25.554;2023-06-14T11:13:25;5.78;;;3.70;;
43487;SDS011;29078;41.932;25.554;2023-06-14T11:15:51;5.30;;;4.72;;
43487;SDS011;29078;41.932;25.554;2023-06-14T11:18:21;10.50;;;7.90;;
43487;SDS011;29078;41.932;25.554;2023-06-14T11:20:49;4.70;;;3.60;;
43487;SDS011;29078;41.932;25.554;2023-06-14T11:23:15;7.45;;;6.25;;
43487;SDS011;29078;41.932;25.554;2023-06-14T11:25:40;6.47;;;5.82;;
43487;SDS011;29078;41.932;25.554;2023-06-14T11:28:06;5.80;;;5.15;;
43487;SDS011;29078;41.932;25.554;2023-06-14T11:30:32;4.45;;;4.15;;
43487;SDS011;29078;41.932;25.554;2023-06-14T11:32:57;4.72;;;4.22;;
43487;SDS011;29078;41.932;25.554;2023-06-14T11:35:23;4.90;;;4.47;;
43487;SDS011;29078;41.932;25.554;2023-06-14T11:37:52;7.05;;;4.57;;
43487;SDS011;29078;41.932;25.554;2023-06-14T11:40:23;6.60;;;6.00;;
43487;SDS011;29078;41.932;25.554;2023-06-14T11:42:49;5.45;;;5.00;;
43487;SDS011;29078;41.932;25.554;2023-06-14T11:45:15;6.05;;;4.82;;
43487;SDS011;29078;41.932;25.554;2023-06-14T11:47:40;5.75;;;5.10;;
43487;SDS011;29078;41.932;25.554;2023-06-14T11:50:07;6.07;;;4.72;;
43487;SDS011;29078;41.932;25.554;2023-06-14T11:52:35;6.47;;;4.60;;
43487;SDS011;29078;41.932;25.554;2023-06-14T11:55:02;7.05;;;4.60;;
43487;SDS011;29078;41.932;25.554;2023-06-14T11:57:34;5.38;;;4.10;;
43487;SDS011;29078;41.932;25.554;2023-06-14T12:00:08;5.50;;;4.78;;
43487;SDS011;29078;41.932;25.554;2023-06-14T12:02:37;6.05;;;4.95;;
43487;SDS011;29078;41.932;25.554;2023-06-14T12:05:04;5.25;;;4.85;;
43487;SDS011;29078;41.932;25.554;2023-06-14T12:12:27;9.63;;;6.88;;
43487;SDS011;29078;41.932;25.554;2023-06-14T12:14:55;5.20;;;4.70;;
43487;SDS011;29078;41.932;25.554;2023-06-14T12:17:22;4.72;;;4.25;;
43487;SDS011;29078;41.932;25.554;2023-06-14T12:19:48;4.30;;;3.65;;
43487;SDS011;29078;41.932;25.554;2023-06-14T12:22:15;5.88;;;4.82;;
43487;SDS011;29078;41.932;25.554;2023-06-14T12:24:44;6.00;;;5.10;;
43487;SDS011;29078;41.932;25.554;2023-06-14T12:27:11;6.18;;;4.50;;
43487;SDS011;29078;41.932;25.554;2023-06-14T12:29:45;6.60;;;5.35;;
43487;SDS011;29078;41.932;25.554;2023-06-14T12:32:11;5.97;;;4.30;;
43487;SDS011;29078;41.932;25.554;2023-06-14T12:34:36;5.10;;;4.10;;
43487;SDS011;29078;41.932;25.554;2023-06-14T12:37:02;5.30;;;4.90;;
43487;SDS011;29078;41.932;25.554;2023-06-14T12:39:31;7.20;;;4.85;;
43487;SDS011;29078;41.932;25.554;2023-06-14T12:41:57;5.53;;;4.20;;
43487;SDS011;29078;41.932;25.554;2023-06-14T12:44:23;5.10;;;4.70;;
43487;SDS011;29078;41.932;25.554;2023-06-14T12:46:48;5.38;;;4.88;;
43487;SDS011;29078;41.932;25.554;2023-06-14T12:49:16;4.97;;;4.53;;
43487;SDS011;29078;41.932;25.554;2023-06-14T12:51:42;8.48;;;7.68;;
43487;SDS011;29078;41.932;25.554;2023-06-14T12:54:08;4.75;;;4.35;;
43487;SDS011;29078;41.932;25.554;2023-06-14T12:56:33;7.53;;;5.60;;
43487;SDS011;29078;41.932;25.554;2023-06-14T12:58:59;6.70;;;6.00;;
43487;SDS011;29078;41.932;25.554;2023-06-14T13:01:24;8.20;;;5.65;;
43487;SDS011;29078;41.932;25.554;2023-06-14T13:03:50;7.55;;;5.50;;
43487;SDS011;29078;41.932;25.554;2023-06-14T13:06:20;4.82;;;4.50;;
43487;SDS011;29078;41.932;25.554;2023-06-14T13:08:46;4.90;;;4.50;;
43487;SDS011;29078;41.932;25.554;2023-06-14T13:11:11;6.28;;;5.60;;
43487;SDS011;29078;41.932;25.554;2023-06-14T13:13:36;5.90;;;5.18;;
43487;SDS011;29078;41.932;25.554;2023-06-14T13:16:02;5.28;;;4.60;;
43487;SDS011;29078;41.932;25.554;2023-06-14T13:18:30;5.65;;;5.15;;
43487;SDS011;29078;41.932;25.554;2023-06-14T13:20:56;5.20;;;3.92;;
43487;SDS011;29078;41.932;25.554;2023-06-14T13:23:21;7.20;;;5.40;;
43487;SDS011;29078;41.932;25.554;2023-06-14T13:25:46;7.07;;;6.20;;
43487;SDS011;29078;41.932;25.554;2023-06-14T13:28:14;4.82;;;4.05;;
43487;SDS011;29078;41.932;25.554;2023-06-14T13:30:40;4.47;;;3.75;;
43487;SDS011;29078;41.932;25.554;2023-06-14T13:33:05;4.10;;;3.70;;
43487;SDS011;29078;41.932;25.554;2023-06-14T13:35:30;4.45;;;3.25;;
43487;SDS011;29078;41.932;25.554;2023-06-14T13:37:56;4.38;;;3.95;;
43487;SDS011;29078;41.932;25.554;2023-06-14T13:40:21;4.63;;;4.25;;
43487;SDS011;29078;41.932;25.554;2023-06-14T13:42:47;5.03;;;4.45;;
43487;SDS011;29078;41.932;25.554;2023-06-14T13:45:13;5.38;;;3.97;;
43487;SDS011;29078;41.932;25.554;2023-06-14T13:47:38;5.50;;;4.05;;
43487;SDS011;29078;41.932;25.554;2023-06-14T13:50:05;14.05;;;12.75;;
43487;SDS011;29078;41.932;25.554;2023-06-14T13:52:31;5.63;;;5.15;;
43487;SDS011;29078;41.932;25.554;2023-06-14T13:54:56;10.20;;;8.45;;
43487;SDS011;29078;41.932;25.554;2023-06-14T13:57:22;8.77;;;6.82;;
43487;SDS011;29078;41.932;25.554;2023-06-14T13:59:47;5.97;;;5.43;;
43487;SDS011;29078;41.932;25.554;2023-06-14T14:02:13;4.60;;;4.20;;
43487;SDS011;29078;41.932;25.554;2023-06-14T14:04:39;4.18;;;3.65;;
43487;SDS011;29078;41.932;25.554;2023-06-14T14:07:05;5.85;;;3.47;;
43487;SDS011;29078;41.932;25.554;2023-06-14T14:09:31;6.43;;;3.63;;
43487;SDS011;29078;41.932;25.554;2023-06-14T14:12:00;4.03;;;3.63;;
43487;SDS011;29078;41.932;25.554;2023-06-14T14:14:27;4.63;;;3.65;;
43487;SDS011;29078;41.932;25.554;2023-06-14T14:16:53;6.75;;;5.03;;
43487;SDS011;29078;41.932;25.554;2023-06-14T14:19:20;4.55;;;3.88;;
43487;SDS011;29078;41.932;25.554;2023-06-14T14:21:46;5.35;;;4.72;;
43487;SDS011;29078;41.932;25.554;2023-06-14T14:24:12;5.95;;;4.28;;
43487;SDS011;29078;41.932;25.554;2023-06-14T14:26:38;5.20;;;4.35;;
43487;SDS011;29078;41.932;25.554;2023-06-14T14:29:03;5.43;;;4.28;;
43487;SDS011;29078;41.932;25.554;2023-06-14T14:31:29;5.57;;;4.25;;
43487;SDS011;29078;41.932;25.554;2023-06-14T14:33:55;8.20;;;6.00;;
43487;SDS011;29078;41.932;25.554;2023-06-14T14:36:20;5.82;;;4.25;;
43487;SDS011;29078;41.932;25.554;2023-06-14T14:38:45;4.90;;;4.32;;
43487;SDS011;29078;41.932;25.554;2023-06-14T14:41:12;5.97;;;4.65;;
43487;SDS011;29078;41.932;25.554;2023-06-14T14:43:37;4.38;;;3.97;;
43487;SDS011;29078;41.932;25.554;2023-06-14T14:46:03;4.15;;;3.75;;
43487;SDS011;29078;41.932;25.554;2023-06-14T14:48:28;4.85;;;4.07;;
43487;SDS011;29078;41.932;25.554;2023-06-14T14:50:53;10.80;;;9.63;;
43487;SDS011;29078;41.932;25.554;2023-06-14T14:53:19;9.30;;;8.10;;
43487;SDS011;29078;41.932;25.554;2023-06-14T14:55:44;4.53;;;4.13;;
43487;SDS011;29078;41.932;25.554;2023-06-14T14:58:11;6.38;;;5.78;;
43487;SDS011;29078;41.932;25.554;2023-06-14T15:00:37;4.63;;;3.60;;
43487;SDS011;29078;41.932;25.554;2023-06-14T15:03:02;5.07;;;4.43;;
43487;SDS011;29078;41.932;25.554;2023-06-14T15:05:28;4.97;;;4.57;;
43487;SDS011;29078;41.932;25.554;2023-06-14T15:07:53;8.00;;;7.30;;
43487;SDS011;29078;41.932;25.554;2023-06-14T15:10:19;4.95;;;4.55;;